createdAt,value
2018-02-25T00:01:31.083Z,-7.90
2018-02-25T00:03:58.013Z,-7.90
2018-02-25T00:06:24.229Z,-8.00
2018-02-25T00:08:50.776Z,-7.90
2018-02-25T00:11:16.998Z,-7.90
2018-02-25T00:13:43.227Z,-8.00
2018-02-25T00:16:10.260Z,-8.10
2018-02-25T00:18:36.456Z,-8.10
2018-02-25T00:21:02.688Z,-8.10
2018-02-25T00:23:28.872Z,-8.10
2018-02-25T00:25:55.840Z,-8.20
2018-02-25T00:28:22.028Z,-8.20
2018-02-25T00:30:48.312Z,-8.20
2018-02-25T00:33:14.509Z,-8.20
2018-02-25T00:35:41.508Z,-8.30
2018-02-25T00:38:07.688Z,-8.30
2018-02-25T00:40:34.675Z,-8.40
2018-02-25T00:43:00.872Z,-8.40
2018-02-25T00:45:27.817Z,-8.40
2018-02-25T00:47:55.103Z,-8.30
2018-02-25T00:50:21.307Z,-8.40
2018-02-25T00:52:47.589Z,-8.30
2018-02-25T00:55:13.776Z,-8.30
2018-02-25T00:57:39.992Z,-8.30
2018-02-25T01:00:06.915Z,-8.40
2018-02-25T01:02:33.872Z,-8.40
2018-02-25T01:05:00.113Z,-8.40
2018-02-25T01:07:26.879Z,-8.40
2018-02-25T01:09:53.060Z,-8.40
2018-02-25T01:12:19.244Z,-8.40
2018-02-25T01:14:45.492Z,-8.40
2018-02-25T01:17:11.704Z,-8.40
2018-02-25T01:19:37.924Z,-8.40
2018-02-25T01:22:04.121Z,-8.40
2018-02-25T01:24:31.081Z,-8.50
2018-02-25T01:26:57.276Z,-8.50
2018-02-25T01:29:24.232Z,-8.50
2018-02-25T01:31:51.392Z,-8.50
2018-02-25T01:34:18.348Z,-8.50
2018-02-25T01:36:44.536Z,-8.60
2018-02-25T01:39:10.835Z,-8.60
2018-02-25T01:41:37.416Z,-8.60
2018-02-25T01:44:05.087Z,-8.70
2018-02-25T01:46:32.052Z,-8.70
2018-02-25T01:48:58.247Z,-8.70
2018-02-25T01:51:24.460Z,-8.70
2018-02-25T01:53:50.649Z,-8.70
2018-02-25T01:56:16.864Z,-8.70
2018-02-25T01:58:43.791Z,-8.70
2018-02-25T02:01:10.752Z,-8.70
2018-02-25T02:03:37.689Z,-8.80
2018-02-25T02:06:04.640Z,-8.70
2018-02-25T02:08:31.578Z,-8.80
2018-02-25T02:10:58.544Z,-8.80
2018-02-25T02:13:24.877Z,-8.90
2018-02-25T02:15:51.715Z,-8.80
2018-02-25T02:18:18.407Z,-8.80
2018-02-25T02:20:45.125Z,-8.80
2018-02-25T02:23:11.788Z,-8.90
2018-02-25T02:25:38.777Z,-8.90
2018-02-25T02:28:05.779Z,-9.00
2018-02-25T02:30:32.037Z,-9.00
2018-02-25T02:32:58.258Z,-9.00
2018-02-25T02:35:25.201Z,-9.00
2018-02-25T02:37:51.421Z,-9.00
2018-02-25T02:40:17.616Z,-9.00
2018-02-25T02:42:43.836Z,-9.00
2018-02-25T02:45:10.048Z,-9.10
2018-02-25T02:47:36.294Z,-9.10
2018-02-25T02:50:02.490Z,-9.10
2018-02-25T02:52:29.460Z,-9.20
2018-02-25T02:54:55.653Z,-9.20
2018-02-25T02:57:21.865Z,-9.20
2018-02-25T02:59:54.989Z,-9.20
2018-02-25T03:02:21.952Z,-9.30
2018-02-25T03:04:48.152Z,-9.30
2018-02-25T03:07:14.401Z,-9.30
2018-02-25T03:09:40.645Z,-9.40
2018-02-25T03:12:06.837Z,-9.40
2018-02-25T03:14:33.060Z,-9.50
2018-02-25T03:17:00.093Z,-9.50
2018-02-25T03:19:26.288Z,-9.50
2018-02-25T03:21:52.527Z,-9.50
2018-02-25T03:24:18.737Z,-9.50
2018-02-25T03:26:44.962Z,-9.50
2018-02-25T03:29:11.192Z,-9.60
2018-02-25T03:31:37.422Z,-9.60
2018-02-25T03:34:03.694Z,-9.60
2018-02-25T03:36:30.133Z,-9.60
2018-02-25T03:38:56.332Z,-9.60
2018-02-25T03:41:22.516Z,-9.70
2018-02-25T03:43:49.481Z,-9.70
2018-02-25T03:46:15.760Z,-9.80
2018-02-25T03:48:41.951Z,-9.70
2018-02-25T03:51:08.165Z,-9.80
2018-02-25T03:53:34.423Z,-9.80
2018-02-25T03:56:01.388Z,-9.80
2018-02-25T03:58:27.605Z,-9.80
2018-02-25T04:00:53.835Z,-9.80
2018-02-25T04:03:20.020Z,-9.90
2018-02-25T04:05:46.993Z,-9.90
2018-02-25T04:08:13.180Z,-9.90
2018-02-25T04:10:40.104Z,-9.90
2018-02-25T04:13:06.333Z,-10.00
2018-02-25T04:15:32.568Z,-9.90
2018-02-25T04:17:58.801Z,-9.90
2018-02-25T04:20:25.056Z,-10.00
2018-02-25T04:22:52.040Z,-10.00
2018-02-25T04:25:18.231Z,-10.00
2018-02-25T04:27:45.200Z,-10.00
2018-02-25T04:30:11.388Z,-10.10
2018-02-25T04:32:37.599Z,-10.10
2018-02-25T04:35:03.787Z,-10.10
2018-02-25T04:37:30.005Z,-10.10
2018-02-25T04:39:56.197Z,-10.10
2018-02-25T04:42:22.423Z,-10.20
2018-02-25T04:44:48.620Z,-10.20
2018-02-25T04:47:14.836Z,-10.30
2018-02-25T04:49:41.020Z,-10.30
2018-02-25T04:52:07.988Z,-10.30
2018-02-25T04:54:34.917Z,-10.30
2018-02-25T04:57:01.880Z,-10.40
2018-02-25T04:59:28.806Z,-10.40
2018-02-25T05:01:55.776Z,-10.40
2018-02-25T05:04:21.972Z,-10.40
2018-02-25T05:06:48.192Z,-10.40
2018-02-25T05:09:14.388Z,-10.40
2018-02-25T05:11:40.604Z,-10.40
2018-02-25T05:14:06.792Z,-10.40
2018-02-25T05:16:33.079Z,-10.40
2018-02-25T05:18:59.297Z,-10.40
2018-02-25T05:21:25.497Z,-10.40
2018-02-25T05:23:52.459Z,-10.50
2018-02-25T05:26:18.648Z,-10.60
2018-02-25T05:28:44.900Z,-10.50
2018-02-25T05:31:11.848Z,-10.60
2018-02-25T05:33:38.812Z,-10.60
2018-02-25T05:36:05.008Z,-10.60
2018-02-25T05:38:31.963Z,-10.60
2018-02-25T05:40:58.901Z,-10.60
2018-02-25T05:43:25.875Z,-10.60
2018-02-25T05:45:52.068Z,-10.60
2018-02-25T05:48:18.286Z,-10.50
2018-02-25T05:50:44.480Z,-10.40
2018-02-25T05:53:10.708Z,-10.40
2018-02-25T05:55:36.899Z,-10.30
2018-02-25T05:58:03.868Z,-10.20
2018-02-25T06:00:30.060Z,-10.30
2018-02-25T06:02:57.028Z,-10.30
2018-02-25T06:05:23.965Z,-10.30
2018-02-25T06:07:50.936Z,-10.30
2018-02-25T06:10:17.132Z,-10.30
2018-02-25T06:12:44.104Z,-10.30
2018-02-25T06:15:10.342Z,-10.30
2018-02-25T06:17:36.559Z,-10.30
2018-02-25T06:20:02.768Z,-10.20
2018-02-25T06:22:29.791Z,-9.90
2018-02-25T06:24:55.992Z,-9.90
2018-02-25T06:27:22.242Z,-9.70
2018-02-25T06:29:48.459Z,-9.50
2018-02-25T06:32:14.715Z,-9.30
2018-02-25T06:34:40.932Z,-9.10
2018-02-25T06:37:07.146Z,-8.90
2018-02-25T06:39:33.328Z,-8.70
2018-02-25T06:42:00.284Z,-7.80
2018-02-25T06:44:27.216Z,-7.40
2018-02-25T06:46:54.325Z,-7.00
2018-02-25T06:49:20.508Z,-7.00
2018-02-25T06:51:46.696Z,-6.60
2018-02-25T06:54:12.909Z,-6.50
2018-02-25T06:56:39.091Z,-6.50
2018-02-25T06:59:05.365Z,-6.00
2018-02-25T07:01:31.561Z,-5.20
2018-02-25T07:03:57.780Z,-4.50
2018-02-25T07:06:23.960Z,-4.20
2018-02-25T07:08:50.172Z,-3.70
2018-02-25T07:11:16.364Z,-3.40
2018-02-25T07:13:43.351Z,-2.80
2018-02-25T07:16:09.552Z,-2.90
2018-02-25T07:18:35.765Z,-3.20
2018-02-25T07:21:02.692Z,-2.30
2018-02-25T07:23:28.916Z,-2.30
2018-02-25T07:25:55.853Z,-1.10
2018-02-25T07:28:22.065Z,-1.10
2018-02-25T07:30:48.244Z,-1.00
2018-02-25T07:33:15.195Z,-1.30
2018-02-25T07:35:41.379Z,-1.40
2018-02-25T07:38:07.600Z,-2.00
2018-02-25T07:40:33.776Z,-1.60
2018-02-25T07:42:59.996Z,-1.10
2018-02-25T07:45:27.002Z,-1.40
2018-02-25T07:47:53.216Z,-1.40
2018-02-25T07:50:19.402Z,-1.50
2018-02-25T07:52:46.364Z,-1.40
2018-02-25T07:55:12.561Z,-1.40
2018-02-25T07:57:39.524Z,-0.60
2018-02-25T08:00:06.454Z,0.10
2018-02-25T08:02:33.421Z,0.20
2018-02-25T08:05:00.343Z,0.60
2018-02-25T08:07:27.304Z,1.50
2018-02-25T08:09:54.228Z,2.40
2018-02-25T08:12:20.636Z,2.30
2018-02-25T08:14:46.847Z,2.50
2018-02-25T08:17:13.044Z,2.00
2018-02-25T08:19:40.013Z,1.70
2018-02-25T08:22:06.213Z,1.70
2018-02-25T08:24:33.167Z,2.10
2018-02-25T08:26:59.356Z,2.10
2018-02-25T08:29:25.572Z,2.40
2018-02-25T08:31:51.753Z,2.60
2018-02-25T08:34:18.704Z,2.20
2018-02-25T08:36:44.931Z,2.20
2018-02-25T08:39:11.891Z,0.60
2018-02-25T08:41:38.071Z,0.60
2018-02-25T08:44:04.316Z,1.40
2018-02-25T08:46:31.244Z,3.00
2018-02-25T08:48:57.432Z,2.90
2018-02-25T08:51:23.653Z,2.90
2018-02-25T08:53:49.844Z,2.20
2018-02-25T08:56:16.853Z,2.20
2018-02-25T08:58:43.032Z,2.20
2018-02-25T09:01:09.992Z,3.00
2018-02-25T09:03:36.196Z,3.00
2018-02-25T09:06:03.164Z,4.40
2018-02-25T09:08:29.356Z,4.40
2018-02-25T09:10:55.582Z,4.60
2018-02-25T09:13:21.785Z,5.20
2018-02-25T09:15:47.992Z,5.90
2018-02-25T09:18:14.285Z,6.50
2018-02-25T09:20:40.448Z,6.40
2018-02-25T09:23:06.648Z,6.10
2018-02-25T09:25:33.577Z,6.40
2018-02-25T09:27:59.786Z,6.30
2018-02-25T09:30:25.973Z,7.00
2018-02-25T09:32:52.212Z,7.30
2018-02-25T09:35:18.429Z,6.80
2018-02-25T09:37:44.624Z,6.80
2018-02-25T09:40:10.825Z,6.70
2018-02-25T09:42:37.009Z,7.30
2018-02-25T09:45:03.224Z,6.90
2018-02-25T09:47:30.211Z,6.80
2018-02-25T09:49:56.421Z,6.80
2018-02-25T09:52:22.636Z,8.20
2018-02-25T09:54:49.600Z,7.60
2018-02-25T09:57:15.821Z,7.60
2018-02-25T09:59:42.072Z,7.90
2018-02-25T10:02:08.284Z,6.50
2018-02-25T10:04:34.472Z,7.20
2018-02-25T10:07:02.168Z,6.30
2018-02-25T10:09:28.356Z,6.30
2018-02-25T10:11:54.559Z,6.80
2018-02-25T10:14:27.992Z,7.50
2018-02-25T10:16:54.201Z,8.00
2018-02-25T10:19:20.464Z,7.90
2018-02-25T10:21:47.388Z,8.40
2018-02-25T10:24:15.080Z,7.90
2018-02-25T10:26:41.999Z,7.90
2018-02-25T10:29:08.209Z,7.90
2018-02-25T10:31:34.401Z,7.20
2018-02-25T10:34:00.621Z,7.60
2018-02-25T10:36:26.804Z,8.30
2018-02-25T10:38:53.011Z,8.30
2018-02-25T10:41:19.200Z,7.90
2018-02-25T10:43:45.769Z,8.50
2018-02-25T10:46:11.956Z,8.70
2018-02-25T10:48:38.904Z,8.00
2018-02-25T10:51:05.872Z,7.30
2018-02-25T10:53:32.092Z,7.30
2018-02-25T10:55:58.317Z,7.90
2018-02-25T10:58:24.511Z,8.00
2018-02-25T11:00:56.974Z,7.30
2018-02-25T11:03:23.177Z,7.30
2018-02-25T11:05:49.545Z,7.10
2018-02-25T11:08:15.745Z,7.20
2018-02-25T11:10:42.000Z,9.00
2018-02-25T11:13:08.188Z,9.70
2018-02-25T11:15:34.474Z,9.90
2018-02-25T11:18:00.657Z,8.70
2018-02-25T11:20:26.868Z,8.80
2018-02-25T11:22:53.088Z,9.60
2018-02-25T11:25:19.296Z,9.20
2018-02-25T11:27:46.255Z,9.40
2018-02-25T11:30:12.468Z,9.30
2018-02-25T11:32:38.687Z,9.80
2018-02-25T11:35:04.879Z,9.60
2018-02-25T11:37:31.099Z,9.20
2018-02-25T11:39:57.281Z,9.20
2018-02-25T11:42:23.767Z,8.80
2018-02-25T11:44:49.955Z,8.80
2018-02-25T11:47:16.912Z,9.40
2018-02-25T11:49:43.124Z,9.40
2018-02-25T11:52:10.088Z,8.20
2018-02-25T11:54:36.284Z,8.20
2018-02-25T11:57:02.510Z,8.50
2018-02-25T11:59:28.725Z,9.20
2018-02-25T12:01:54.947Z,9.70
2018-02-25T12:04:21.136Z,10.30
2018-02-25T12:06:47.364Z,10.30
2018-02-25T12:09:13.556Z,9.20
2018-02-25T12:11:39.814Z,9.80
2018-02-25T12:14:06.777Z,10.10
2018-02-25T12:16:33.003Z,10.00
2018-02-25T12:18:59.264Z,8.80
2018-02-25T12:21:25.460Z,8.50
2018-02-25T12:23:52.412Z,8.80
2018-02-25T12:26:18.600Z,8.80
2018-02-25T12:28:44.816Z,9.60
2018-02-25T12:31:11.073Z,10.20
2018-02-25T12:33:38.025Z,9.60
2018-02-25T12:36:04.948Z,10.50
2018-02-25T12:38:31.157Z,10.50
2018-02-25T12:40:57.348Z,10.70
2018-02-25T12:43:23.556Z,11.10
2018-02-25T12:45:50.488Z,11.60
2018-02-25T12:48:17.448Z,11.20
2018-02-25T12:50:44.368Z,9.70
2018-02-25T12:53:10.965Z,9.70
2018-02-25T12:55:37.221Z,9.40
2018-02-25T12:58:03.434Z,8.70
2018-02-25T13:00:29.621Z,8.30
2018-02-25T13:02:56.577Z,8.70
2018-02-25T13:05:22.823Z,8.60
2018-02-25T13:07:49.077Z,8.30
2018-02-25T13:10:15.269Z,7.30
2018-02-25T13:12:41.452Z,8.40
2018-02-25T13:15:07.668Z,9.00
2018-02-25T13:17:33.888Z,8.00
2018-02-25T13:20:00.109Z,7.90
2018-02-25T13:22:26.304Z,8.90
2018-02-25T13:24:52.544Z,8.80
2018-02-25T13:27:18.731Z,8.20
2018-02-25T13:29:44.948Z,6.90
2018-02-25T13:32:11.136Z,6.40
2018-02-25T13:34:37.347Z,6.40
2018-02-25T13:37:03.544Z,5.60
2018-02-25T13:39:29.764Z,4.60
2018-02-25T13:41:55.948Z,3.80
2018-02-25T13:44:22.168Z,3.50
2018-02-25T13:46:48.380Z,2.50
2018-02-25T13:49:15.341Z,2.90
2018-02-25T13:51:41.532Z,2.90
2018-02-25T13:54:07.765Z,2.60
2018-02-25T13:56:33.952Z,2.20
2018-02-25T13:59:00.167Z,1.90
2018-02-25T14:01:26.452Z,1.60
2018-02-25T14:03:52.677Z,1.40
2018-02-25T14:06:18.872Z,1.00
2018-02-25T14:08:52.033Z,1.40
2018-02-25T14:11:18.233Z,1.10
2018-02-25T14:13:44.483Z,0.80
2018-02-25T14:16:11.440Z,1.10
2018-02-25T14:18:37.673Z,1.10
2018-02-25T14:21:03.860Z,0.90
2018-02-25T14:23:30.060Z,1.30
2018-02-25T14:25:56.336Z,0.90
2018-02-25T14:28:23.550Z,0.70
2018-02-25T14:30:49.760Z,0.70
2018-02-25T14:33:15.949Z,0.80
2018-02-25T14:35:42.908Z,1.20
2018-02-25T14:38:09.112Z,1.20
2018-02-25T14:40:36.072Z,0.00
2018-02-25T14:43:03.012Z,-0.20
2018-02-25T14:45:29.972Z,-0.40
2018-02-25T14:47:56.249Z,-0.40
2018-02-25T14:50:22.468Z,-0.90
2018-02-25T14:52:48.651Z,-1.00
2018-02-25T14:55:15.721Z,-1.20
2018-02-25T14:57:41.912Z,-1.20
2018-02-25T15:00:08.099Z,-1.00
2018-02-25T15:02:34.326Z,-1.10
2018-02-25T15:05:00.855Z,-1.00
2018-02-25T15:07:27.071Z,-0.80
2018-02-25T15:09:53.256Z,-1.00
2018-02-25T15:12:19.467Z,-1.30
2018-02-25T15:14:45.652Z,-1.10
2018-02-25T15:17:11.898Z,-0.80
2018-02-25T15:19:38.097Z,-1.20
2018-02-25T15:22:05.048Z,-1.50
2018-02-25T15:24:31.241Z,-1.50
2018-02-25T15:26:57.453Z,-1.40
2018-02-25T15:29:23.645Z,-1.70
2018-02-25T15:31:50.249Z,-1.70
2018-02-25T15:34:17.175Z,-2.00
2018-02-25T15:36:43.395Z,-2.00
2018-02-25T15:39:09.584Z,-2.30
2018-02-25T15:41:35.803Z,-2.60
2018-02-25T15:44:02.006Z,-2.70
2018-02-25T15:46:29.068Z,-3.20
2018-02-25T15:48:55.996Z,-3.40
2018-02-25T15:51:22.192Z,-3.40
2018-02-25T15:53:49.232Z,-3.50
2018-02-25T15:56:15.424Z,-3.70
2018-02-25T15:58:42.384Z,-3.90
2018-02-25T16:01:08.585Z,-3.90
2018-02-25T16:03:35.553Z,-3.90
2018-02-25T16:06:01.751Z,-4.00
2018-02-25T16:08:27.972Z,-3.90
2018-02-25T16:10:54.168Z,-3.90
2018-02-25T16:13:20.392Z,-3.90
2018-02-25T16:15:46.580Z,-3.80
2018-02-25T16:18:12.861Z,-3.80
2018-02-25T16:20:39.052Z,-3.90
2018-02-25T16:23:05.284Z,-4.00
2018-02-25T16:25:31.480Z,-4.10
2018-02-25T16:27:57.712Z,-4.10
2018-02-25T16:30:24.652Z,-4.20
2018-02-25T16:32:50.876Z,-4.20
2018-02-25T16:35:17.805Z,-4.40
2018-02-25T16:37:44.442Z,-4.40
2018-02-25T16:40:10.696Z,-4.50
2018-02-25T16:42:36.888Z,-4.50
2018-02-25T16:45:03.124Z,-4.60
2018-02-25T16:47:29.308Z,-4.60
2018-02-25T16:49:56.260Z,-4.70
2018-02-25T16:52:22.448Z,-4.80
2018-02-25T16:54:50.149Z,-4.80
2018-02-25T16:57:16.351Z,-4.80
2018-02-25T16:59:42.637Z,-4.80
2018-02-25T17:02:08.829Z,-4.80
2018-02-25T17:04:35.789Z,-4.90
2018-02-25T17:07:01.986Z,-4.90
2018-02-25T17:09:28.195Z,-4.90
2018-02-25T17:11:54.390Z,-4.90
2018-02-25T17:14:20.617Z,-4.80
2018-02-25T17:16:46.828Z,-4.80
2018-02-25T17:19:13.048Z,-4.90
2018-02-25T17:21:40.040Z,-4.90
2018-02-25T17:24:06.256Z,-5.00
2018-02-25T17:26:32.444Z,-5.00
2018-02-25T17:28:59.729Z,-5.10
2018-02-25T17:31:26.157Z,-5.10
2018-02-25T17:33:52.347Z,-5.20
2018-02-25T17:36:19.307Z,-5.40
2018-02-25T17:38:46.265Z,-5.50
2018-02-25T17:41:13.228Z,-5.50
2018-02-25T17:43:39.419Z,-5.50
2018-02-25T17:46:05.639Z,-5.50
2018-02-25T17:48:31.836Z,-5.60
2018-02-25T17:50:58.060Z,-5.60
2018-02-25T17:53:24.256Z,-5.70
2018-02-25T17:55:51.336Z,-5.70
2018-02-25T17:58:17.471Z,-5.80
2018-02-25T18:00:43.668Z,-5.70
2018-02-25T18:03:09.884Z,-5.70
2018-02-25T18:05:36.812Z,-5.80
2018-02-25T18:08:03.784Z,-5.80
2018-02-25T18:10:29.976Z,-5.80
2018-02-25T18:12:56.938Z,-5.90
2018-02-25T18:15:23.876Z,-5.90
2018-02-25T18:17:50.114Z,-5.90
2018-02-25T18:20:17.044Z,-6.00
2018-02-25T18:22:44.259Z,-6.00
2018-02-25T18:25:10.451Z,-6.00
2018-02-25T18:27:37.428Z,-6.00
2018-02-25T18:30:03.660Z,-6.00
2018-02-25T18:32:29.901Z,-6.00
2018-02-25T18:34:56.080Z,-5.90
2018-02-25T18:37:23.007Z,-5.80
2018-02-25T18:39:49.960Z,-5.70
2018-02-25T18:42:16.147Z,-5.80
2018-02-25T18:44:42.360Z,-5.70
2018-02-25T18:47:08.614Z,-5.70
2018-02-25T18:49:34.812Z,-5.70
2018-02-25T18:52:01.008Z,-5.70
2018-02-25T18:54:28.005Z,-5.70
2018-02-25T18:56:54.329Z,-5.70
2018-02-25T18:59:20.539Z,-5.60
2018-02-25T19:01:46.736Z,-5.60
2018-02-25T19:04:12.952Z,-5.60
2018-02-25T19:06:39.904Z,-5.60
2018-02-25T19:09:07.761Z,-5.60
2018-02-25T19:11:33.948Z,-5.60
2018-02-25T19:14:00.137Z,-5.60
2018-02-25T19:16:26.385Z,-5.60
2018-02-25T19:18:52.571Z,-5.70
2018-02-25T19:21:18.788Z,-5.70
2018-02-25T19:23:44.975Z,-5.80
2018-02-25T19:26:11.996Z,-5.90
2018-02-25T19:28:38.192Z,-5.90
2018-02-25T19:31:04.416Z,-6.00
2018-02-25T19:33:30.608Z,-5.90
2018-02-25T19:36:03.057Z,-5.90
2018-02-25T19:38:35.340Z,-5.80
2018-02-25T19:41:08.444Z,-5.70
2018-02-25T19:43:34.723Z,-5.70
2018-02-25T19:46:00.940Z,-5.60
2018-02-25T19:48:27.132Z,-5.60
2018-02-25T19:50:53.356Z,-5.50
2018-02-25T19:53:20.284Z,-5.40
2018-02-25T19:55:46.500Z,-5.40
2018-02-25T19:58:12.696Z,-5.30
2018-02-25T20:00:38.917Z,-5.30
2018-02-25T20:03:05.104Z,-5.30
2018-02-25T20:05:32.064Z,-5.20
2018-02-25T20:07:59.007Z,-5.20
2018-02-25T20:10:25.966Z,-5.20
2018-02-25T20:12:52.157Z,-5.30
2018-02-25T20:15:18.371Z,-5.20
2018-02-25T20:17:44.595Z,-5.30
2018-02-25T20:20:10.815Z,-5.30
2018-02-25T20:22:37.007Z,-5.30
2018-02-25T20:25:03.229Z,-5.40
2018-02-25T20:27:29.424Z,-5.40
2018-02-25T20:29:56.381Z,-5.50
2018-02-25T20:32:23.316Z,-5.50
2018-02-25T20:34:50.273Z,-5.50
2018-02-25T20:37:17.217Z,-5.40
2018-02-25T20:39:43.432Z,-5.40
2018-02-25T20:42:10.420Z,-5.40
2018-02-25T20:44:36.663Z,-5.50
2018-02-25T20:47:02.859Z,-5.40
2018-02-25T20:49:29.800Z,-5.50
2018-02-25T20:51:56.016Z,-5.50
2018-02-25T20:54:22.945Z,-5.50
2018-02-25T20:56:49.160Z,-5.50
2018-02-25T20:59:15.348Z,-5.50
2018-02-25T21:01:42.368Z,-5.50
2018-02-25T21:04:10.041Z,-5.60
2018-02-25T21:06:36.257Z,-5.60
2018-02-25T21:09:03.976Z,-5.60
2018-02-25T21:11:30.194Z,-5.60
2018-02-25T21:13:56.412Z,-5.60
2018-02-25T21:16:23.403Z,-5.60
2018-02-25T21:18:49.600Z,-5.60
2018-02-25T21:21:15.825Z,-5.60
2018-02-25T21:23:42.011Z,-5.70
2018-02-25T21:26:08.972Z,-5.70
2018-02-25T21:28:35.160Z,-5.70
2018-02-25T21:31:01.380Z,-5.70
2018-02-25T21:33:27.578Z,-5.70
2018-02-25T21:35:54.140Z,-5.70
2018-02-25T21:38:20.320Z,-5.70
2018-02-25T21:40:46.536Z,-5.70
2018-02-25T21:43:12.726Z,-5.80
2018-02-25T21:45:38.956Z,-5.80
2018-02-25T21:48:05.137Z,-5.80
2018-02-25T21:50:32.095Z,-5.80
2018-02-25T21:52:59.038Z,-5.80
2018-02-25T21:55:25.992Z,-6.00
2018-02-25T21:57:59.028Z,-6.10
2018-02-25T22:00:31.424Z,-6.10
2018-02-25T22:03:03.681Z,-6.10
2018-02-25T22:05:29.923Z,-6.10
2018-02-25T22:07:56.860Z,-6.20
2018-02-25T22:10:23.089Z,-6.30
2018-02-25T22:12:49.280Z,-6.20
2018-02-25T22:15:15.536Z,-6.20
2018-02-25T22:17:41.789Z,-6.20
2018-02-25T22:20:09.513Z,-6.10
2018-02-25T22:22:36.108Z,-6.10
2018-02-25T22:25:02.320Z,-6.00
2018-02-25T22:27:28.541Z,-5.90
2018-02-25T22:29:56.208Z,-5.80
2018-02-25T22:32:22.425Z,-5.80
2018-02-25T22:34:48.634Z,-5.80
2018-02-25T22:37:14.864Z,-5.70
2018-02-25T22:39:41.060Z,-5.70
2018-02-25T22:42:07.437Z,-5.70
2018-02-25T22:44:33.685Z,-5.70
2018-02-25T22:47:01.376Z,-5.80
2018-02-25T22:49:28.341Z,-5.80
2018-02-25T22:51:54.560Z,-5.90
2018-02-25T22:54:21.512Z,-6.00
2018-02-25T22:56:47.699Z,-6.00
2018-02-25T22:59:14.663Z,-6.00
2018-02-25T23:01:41.599Z,-6.00
2018-02-25T23:04:16.328Z,-6.00
2018-02-25T23:06:42.765Z,-6.10
2018-02-25T23:09:09.724Z,-5.90
2018-02-25T23:11:36.912Z,-6.00
2018-02-25T23:14:03.200Z,-6.00
2018-02-25T23:16:30.160Z,-5.90
2018-02-25T23:18:57.151Z,-5.90
2018-02-25T23:21:23.357Z,-6.00
2018-02-25T23:23:49.572Z,-6.00
2018-02-25T23:26:15.760Z,-6.10
2018-02-25T23:28:43.464Z,-6.20
2018-02-25T23:31:09.708Z,-6.20
2018-02-25T23:33:35.934Z,-6.10
2018-02-25T23:36:02.132Z,-6.20
2018-02-25T23:38:28.528Z,-6.20
2018-02-25T23:40:54.716Z,-6.10
2018-02-25T23:43:20.900Z,-6.00
2018-02-25T23:45:48.596Z,-5.90
2018-02-25T23:48:15.525Z,-5.90
2018-02-25T23:50:42.480Z,-5.90
2018-02-25T23:53:09.412Z,-5.80
2018-02-25T23:55:35.632Z,-5.90
2018-02-25T23:58:01.828Z,-5.90
